createdAt,value
2022-10-21T00:01:41.562Z,92.19
2022-10-21T00:04:08.086Z,92.29
2022-10-21T00:06:35.054Z,92.26
2022-10-21T00:09:01.766Z,92.45
2022-10-21T00:11:28.785Z,92.32
2022-10-21T00:13:55.323Z,92.67
2022-10-21T00:16:22.050Z,92.63
2022-10-21T00:18:49.031Z,92.26
2022-10-21T00:21:18.719Z,92.51
2022-10-21T00:23:46.534Z,92.41
2022-10-21T00:26:14.386Z,92.29
2022-10-21T00:28:41.577Z,91.99
2022-10-21T00:31:10.419Z,92.17
2022-10-21T00:33:37.197Z,91.90
2022-10-21T00:36:07.103Z,92.22
2022-10-21T00:38:35.686Z,92.07
2022-10-21T00:41:03.055Z,92.05
2022-10-21T00:43:30.227Z,91.78
2022-10-21T00:46:03.458Z,91.66
2022-10-21T00:48:36.058Z,91.75
2022-10-21T00:51:13.571Z,92.08
2022-10-21T00:53:43.843Z,91.61
2022-10-21T00:56:16.422Z,91.68
2022-10-21T00:58:44.745Z,91.78
2022-10-21T01:01:11.739Z,91.27
2022-10-21T01:03:38.537Z,91.66
2022-10-21T01:06:09.205Z,91.14
2022-10-21T01:08:37.582Z,91.34
2022-10-21T01:11:06.850Z,91.37
2022-10-21T01:14:11.113Z,91.61
2022-10-21T01:17:03.013Z,92.15
2022-10-21T01:19:33.047Z,92.04
2022-10-21T01:22:08.507Z,92.26
2022-10-21T01:24:53.576Z,91.85
2022-10-21T01:27:29.987Z,92.25
2022-10-21T01:30:12.090Z,92.37
2022-10-21T01:32:57.123Z,92.17
2022-10-21T01:35:32.478Z,92.53
2022-10-21T01:38:07.763Z,92.37
2022-10-21T01:40:37.477Z,92.42
2022-10-21T01:43:21.268Z,92.92
2022-10-21T01:45:54.595Z,92.41
2022-10-21T01:48:29.175Z,92.64
2022-10-21T01:51:00.593Z,92.87
2022-10-21T01:53:30.685Z,92.68
2022-10-21T01:56:03.988Z,92.98
2022-10-21T01:58:35.648Z,92.93
2022-10-21T02:01:04.801Z,93.62
2022-10-21T02:03:35.229Z,93.23
2022-10-21T02:06:02.207Z,93.47
2022-10-21T02:08:29.161Z,93.36
2022-10-21T02:10:59.548Z,93.68
2022-10-21T02:13:32.496Z,93.69
2022-10-21T02:16:02.490Z,93.78
2022-10-21T02:18:29.099Z,93.57
2022-10-21T02:21:04.568Z,93.32
2022-10-21T02:23:40.847Z,93.66
2022-10-21T02:26:07.594Z,94.04
2022-10-21T02:28:34.866Z,94.31
2022-10-21T02:31:19.528Z,93.82
2022-10-21T02:33:59.298Z,93.99
2022-10-21T02:37:17.553Z,94.03
2022-10-21T02:39:51.885Z,93.77
2022-10-21T02:42:27.125Z,93.50
2022-10-21T02:44:53.970Z,93.80
2022-10-21T02:47:20.932Z,93.35
2022-10-21T02:49:47.720Z,93.67
2022-10-21T02:52:14.888Z,93.43
2022-10-21T02:54:43.799Z,93.31
2022-10-21T02:57:10.361Z,93.11
2022-10-21T02:59:36.886Z,93.29
2022-10-21T03:02:03.925Z,92.99
2022-10-21T03:04:30.545Z,93.02
2022-10-21T03:06:57.074Z,92.47
2022-10-21T03:09:23.815Z,92.70
2022-10-21T03:11:50.321Z,92.45
2022-10-21T03:14:16.812Z,92.18
2022-10-21T03:16:44.508Z,91.84
2022-10-21T03:19:11.798Z,91.68
2022-10-21T03:21:38.868Z,91.84
2022-10-21T03:24:15.270Z,91.75
2022-10-21T03:26:55.934Z,91.12
2022-10-21T03:29:23.219Z,91.08
2022-10-21T03:31:55.709Z,91.06
2022-10-21T03:34:22.347Z,90.83
2022-10-21T03:36:49.261Z,90.87
2022-10-21T03:39:15.774Z,90.66
2022-10-21T03:41:42.272Z,90.93
2022-10-21T03:44:09.269Z,90.93
2022-10-21T03:46:35.814Z,91.15
2022-10-21T03:49:04.625Z,90.63
2022-10-21T03:51:33.338Z,90.33
2022-10-21T03:53:59.949Z,90.67
2022-10-21T03:56:26.559Z,90.77
2022-10-21T03:58:57.819Z,90.49
2022-10-21T04:01:25.623Z,90.70
2022-10-21T04:03:52.378Z,90.73
2022-10-21T04:06:19.030Z,90.53
2022-10-21T04:08:45.587Z,90.48
2022-10-21T04:11:12.184Z,90.75
2022-10-21T04:13:38.715Z,90.77
2022-10-21T04:16:08.520Z,90.13
2022-10-21T04:18:35.342Z,90.61
2022-10-21T04:21:01.844Z,90.57
2022-10-21T04:23:28.842Z,90.80
2022-10-21T04:25:55.472Z,90.66
2022-10-21T04:28:22.217Z,90.21
2022-10-21T04:30:50.118Z,90.09
2022-10-21T04:33:16.707Z,90.10
2022-10-21T04:35:43.350Z,90.34
2022-10-21T04:38:10.120Z,90.51
2022-10-21T04:40:36.721Z,90.60
2022-10-21T04:43:03.994Z,90.19
2022-10-21T04:45:30.675Z,90.18
2022-10-21T04:47:57.189Z,90.15
2022-10-21T04:50:24.021Z,89.75
2022-10-21T04:52:50.675Z,90.30
2022-10-21T04:55:17.358Z,90.15
2022-10-21T04:57:44.305Z,89.58
2022-10-21T05:00:12.075Z,89.49
2022-10-21T05:02:38.948Z,89.29
2022-10-21T05:05:06.375Z,88.88
2022-10-21T05:07:32.892Z,88.77
2022-10-21T05:09:59.406Z,89.23
2022-10-21T05:12:26.032Z,88.93
2022-10-21T05:14:52.537Z,88.94
2022-10-21T05:17:19.049Z,88.80
2022-10-21T05:19:46.068Z,88.81
2022-10-21T05:22:12.956Z,88.78
2022-10-21T05:24:39.476Z,88.45
2022-10-21T05:27:05.966Z,88.66
2022-10-21T05:29:32.468Z,88.75
2022-10-21T05:31:59.044Z,88.53
2022-10-21T05:34:25.601Z,88.45
2022-10-21T05:36:52.191Z,88.56
2022-10-21T05:39:18.666Z,89.09
2022-10-21T05:41:47.817Z,89.07
2022-10-21T05:44:14.934Z,89.18
2022-10-21T05:46:41.425Z,89.40
2022-10-21T05:49:08.409Z,89.05
2022-10-21T05:51:34.935Z,89.19
2022-10-21T05:54:03.878Z,89.03
2022-10-21T05:56:31.423Z,89.63
2022-10-21T05:58:57.933Z,89.11
2022-10-21T06:01:24.500Z,89.18
2022-10-21T06:03:51.085Z,89.38
2022-10-21T06:06:18.248Z,89.15
2022-10-21T06:08:44.834Z,89.14
2022-10-21T06:11:17.122Z,89.36
2022-10-21T06:13:44.097Z,89.30
2022-10-21T06:16:11.483Z,89.33
2022-10-21T06:18:38.894Z,89.40
2022-10-21T06:21:05.860Z,89.45
2022-10-21T06:23:32.886Z,89.77
2022-10-21T06:26:08.320Z,89.75
2022-10-21T06:28:37.310Z,89.88
2022-10-21T06:31:05.037Z,89.49
2022-10-21T06:33:31.613Z,89.47
2022-10-21T06:35:58.472Z,90.04
2022-10-21T06:38:26.230Z,89.68
2022-10-21T06:40:53.337Z,89.59
2022-10-21T06:43:19.950Z,89.90
2022-10-21T06:45:46.551Z,90.07
2022-10-21T06:48:13.850Z,89.64
2022-10-21T06:50:40.444Z,89.68
2022-10-21T06:53:07.353Z,89.37
2022-10-21T06:55:36.174Z,89.44
2022-10-21T06:58:03.140Z,89.21
2022-10-21T07:02:58.089Z,89.05
2022-10-21T07:05:24.719Z,89.27
2022-10-21T07:07:52.511Z,88.86
2022-10-21T07:10:19.495Z,89.27
2022-10-21T07:12:46.924Z,89.11
2022-10-21T07:15:13.439Z,88.70
2022-10-21T07:17:40.513Z,89.07
2022-10-21T07:20:07.645Z,88.72
2022-10-21T07:22:35.665Z,88.65
2022-10-21T07:25:02.415Z,88.46
2022-10-21T07:27:29.079Z,88.81
2022-10-21T07:29:55.971Z,88.64
2022-10-21T07:32:22.451Z,88.56
2022-10-21T07:34:48.923Z,88.10
2022-10-21T07:37:15.468Z,88.45
2022-10-21T07:39:41.979Z,88.36
2022-10-21T07:42:09.833Z,87.99
2022-10-21T07:44:36.416Z,88.04
2022-10-21T07:47:02.959Z,88.16
2022-10-21T07:49:29.762Z,88.16
2022-10-21T07:51:56.959Z,88.17
2022-10-21T07:54:23.558Z,87.87
2022-10-21T07:56:52.238Z,87.83
2022-10-21T07:59:22.676Z,87.65
2022-10-21T08:04:36.441Z,87.22
2022-10-21T08:07:03.217Z,87.44
2022-10-21T08:09:29.784Z,87.10
2022-10-21T08:11:57.214Z,86.88
2022-10-21T08:14:24.457Z,87.18
2022-10-21T08:16:53.144Z,86.57
2022-10-21T08:19:24.153Z,86.60
2022-10-21T08:21:50.646Z,86.68
2022-10-21T08:24:17.282Z,86.43
2022-10-21T08:26:43.854Z,86.56
2022-10-21T08:29:10.354Z,86.32
2022-10-21T08:31:37.118Z,86.13
2022-10-21T08:34:03.649Z,86.42
2022-10-21T08:36:30.130Z,86.31
2022-10-21T08:38:58.463Z,86.29
2022-10-21T08:41:30.946Z,86.25
2022-10-21T08:44:00.605Z,86.07
2022-10-21T08:46:35.696Z,86.79
2022-10-21T08:49:26.247Z,86.52
2022-10-21T08:52:04.549Z,86.98
2022-10-21T08:54:47.164Z,87.12
2022-10-21T08:57:14.201Z,87.15
2022-10-21T08:59:42.730Z,87.46
2022-10-21T09:02:12.164Z,87.56
2022-10-21T09:04:44.559Z,87.83
2022-10-21T09:07:41.580Z,87.80
2022-10-21T09:10:22.589Z,87.95
2022-10-21T09:13:11.042Z,88.27
2022-10-21T09:15:37.630Z,88.29
2022-10-21T09:18:26.651Z,87.99
2022-10-21T09:21:06.000Z,88.66
2022-10-21T09:23:38.592Z,88.22
2022-10-21T09:26:20.073Z,88.24
2022-10-21T09:28:48.247Z,87.96
2022-10-21T09:31:20.162Z,88.24
2022-10-21T09:34:02.680Z,87.74
2022-10-21T09:36:47.672Z,87.75
2022-10-21T09:39:24.418Z,87.39
2022-10-21T09:41:59.122Z,87.66
2022-10-21T09:44:28.557Z,87.72
2022-10-21T09:46:55.595Z,88.04
2022-10-21T09:52:21.995Z,88.01
2022-10-21T09:54:49.564Z,88.51
2022-10-21T09:57:37.838Z,88.80
2022-10-21T10:00:08.290Z,89.22
2022-10-21T10:02:44.483Z,89.48
2022-10-21T10:05:38.362Z,89.36
2022-10-21T10:08:36.358Z,89.63
2022-10-21T10:11:08.670Z,89.41
2022-10-21T10:13:42.051Z,89.71
2022-10-21T10:16:15.635Z,89.42
2022-10-21T10:18:43.876Z,89.58
2022-10-21T10:21:16.086Z,89.08
2022-10-21T10:23:51.681Z,89.31
2022-10-21T10:26:24.701Z,89.42
2022-10-21T10:28:55.815Z,88.81
2022-10-21T10:31:24.949Z,88.50
2022-10-21T10:33:58.813Z,88.44
2022-10-21T10:36:30.129Z,88.44
2022-10-21T10:38:59.704Z,88.32
2022-10-21T10:41:33.340Z,88.34
2022-10-21T10:44:00.507Z,88.30
2022-10-21T10:46:29.233Z,88.35
2022-10-21T10:48:59.385Z,88.26
2022-10-21T10:51:29.734Z,88.43
2022-10-21T10:54:01.369Z,88.27
2022-10-21T10:56:55.710Z,88.67
2022-10-21T10:59:42.425Z,88.82
2022-10-21T11:02:12.334Z,88.70
2022-10-21T11:04:49.557Z,88.68
2022-10-21T11:07:25.659Z,88.38
2022-10-21T11:09:56.868Z,88.03
2022-10-21T11:12:26.557Z,88.05
2022-10-21T11:14:58.435Z,88.29
2022-10-21T11:17:37.839Z,88.41
2022-10-21T11:20:13.369Z,88.41
2022-10-21T11:25:48.921Z,88.44
2022-10-21T11:28:37.127Z,87.81
2022-10-21T11:31:26.749Z,87.00
2022-10-21T11:34:42.459Z,86.47
2022-10-21T11:37:21.787Z,85.25
2022-10-21T11:40:04.210Z,85.23
2022-10-21T11:42:40.789Z,85.14
2022-10-21T11:45:43.820Z,84.88
2022-10-21T11:48:52.787Z,83.47
2022-10-21T11:51:45.346Z,83.23
2022-10-21T11:54:33.403Z,83.72
2022-10-21T11:57:19.344Z,83.04
2022-10-21T12:00:00.383Z,82.78
2022-10-21T12:02:43.106Z,83.17
2022-10-21T12:05:34.510Z,82.23
2022-10-21T12:08:21.843Z,82.22
2022-10-21T12:11:03.579Z,82.08
2022-10-21T12:13:33.280Z,81.57
2022-10-21T12:16:10.084Z,80.50
2022-10-21T12:18:58.880Z,80.04
2022-10-21T12:21:29.392Z,79.59
2022-10-21T12:24:10.598Z,78.90
2022-10-21T12:26:43.233Z,78.24
2022-10-21T12:29:28.000Z,78.28
2022-10-21T12:32:05.594Z,77.48
2022-10-21T12:34:33.308Z,77.48
2022-10-21T12:36:59.944Z,76.99
2022-10-21T12:39:35.814Z,76.26
2022-10-21T12:42:11.767Z,75.35
2022-10-21T12:47:34.772Z,73.08
2022-10-21T12:50:26.207Z,72.50
2022-10-21T12:53:18.306Z,71.70
2022-10-21T12:55:55.011Z,72.21
2022-10-21T12:58:37.743Z,72.34
2022-10-21T13:01:06.615Z,72.58
2022-10-21T13:03:45.039Z,72.87
2022-10-21T13:06:12.852Z,72.85
2022-10-21T13:08:54.801Z,73.31
2022-10-21T13:11:38.863Z,73.80
2022-10-21T13:14:17.374Z,74.06
2022-10-21T13:16:44.111Z,74.52
2022-10-21T13:19:16.549Z,74.42
2022-10-21T13:21:48.896Z,74.45
2022-10-21T13:24:25.013Z,74.79
2022-10-21T13:26:55.784Z,75.06
2022-10-21T13:29:31.505Z,75.42
2022-10-21T13:32:31.782Z,75.30
2022-10-21T13:35:05.825Z,75.75
2022-10-21T13:37:56.445Z,75.70
2022-10-21T13:40:28.998Z,76.48
2022-10-21T13:43:22.003Z,76.19
2022-10-21T13:45:51.586Z,75.40
2022-10-21T13:48:20.592Z,75.13
2022-10-21T13:50:50.131Z,75.24
2022-10-21T13:53:38.095Z,75.64
2022-10-21T13:56:18.904Z,76.42
2022-10-21T13:58:45.692Z,77.04
2022-10-21T14:01:25.781Z,77.04
2022-10-21T14:03:53.698Z,77.89
2022-10-21T14:06:32.576Z,78.03
2022-10-21T14:09:08.145Z,78.33
2022-10-21T14:11:43.406Z,78.89
2022-10-21T14:14:14.215Z,79.27
2022-10-21T14:16:58.088Z,79.64
2022-10-21T14:19:32.588Z,79.99
2022-10-21T14:22:00.832Z,80.33
2022-10-21T14:24:47.229Z,79.97
2022-10-21T14:27:25.365Z,80.72
2022-10-21T14:29:52.334Z,80.61
2022-10-21T14:32:21.162Z,80.63
2022-10-21T14:35:02.993Z,80.49
2022-10-21T14:37:45.600Z,80.56
2022-10-21T14:40:18.240Z,80.14
2022-10-21T14:42:46.212Z,79.85
2022-10-21T14:45:19.518Z,80.52
2022-10-21T14:47:51.067Z,80.42
2022-10-21T14:50:24.075Z,80.41
2022-10-21T14:52:52.675Z,80.34
2022-10-21T14:55:31.962Z,80.61
2022-10-21T14:58:07.433Z,80.75
2022-10-21T15:00:41.532Z,81.01
2022-10-21T15:03:12.616Z,81.55
2022-10-21T15:05:46.534Z,81.57
2022-10-21T15:08:21.286Z,81.36
2022-10-21T15:10:56.681Z,81.38
2022-10-21T15:13:25.306Z,81.06
2022-10-21T15:15:57.054Z,80.73
2022-10-21T15:18:29.594Z,80.72
2022-10-21T15:21:01.911Z,80.35
2022-10-21T15:23:34.280Z,80.84
2022-10-21T15:26:05.881Z,80.88
2022-10-21T15:28:34.364Z,80.79
2022-10-21T15:31:02.712Z,81.13
2022-10-21T15:33:29.784Z,80.54
2022-10-21T15:36:04.751Z,80.61
2022-10-21T15:38:31.386Z,81.24
2022-10-21T15:40:58.003Z,81.18
2022-10-21T15:43:24.545Z,81.27
2022-10-21T15:45:51.120Z,81.43
2022-10-21T15:48:17.703Z,81.78
2022-10-21T15:50:44.800Z,81.81
2022-10-21T15:53:11.509Z,82.10
2022-10-21T15:55:38.687Z,82.23
2022-10-21T15:58:06.709Z,82.32
2022-10-21T16:00:39.955Z,82.84
2022-10-21T16:03:07.768Z,83.10
2022-10-21T16:05:34.488Z,83.75
2022-10-21T16:08:01.001Z,83.63
2022-10-21T16:10:30.735Z,84.25
2022-10-21T16:12:57.695Z,84.42
2022-10-21T16:15:25.115Z,84.58
2022-10-21T16:17:54.774Z,85.10
2022-10-21T16:20:30.439Z,85.16
2022-10-21T16:23:00.639Z,85.51
2022-10-21T16:25:29.561Z,85.56
2022-10-21T16:27:56.800Z,86.14
2022-10-21T16:30:43.787Z,86.16
2022-10-21T16:33:11.332Z,86.80
2022-10-21T16:35:37.820Z,86.79
2022-10-21T16:38:04.396Z,86.91
2022-10-21T16:40:35.214Z,86.86
2022-10-21T16:43:01.912Z,87.14
2022-10-21T16:45:30.979Z,87.25
2022-10-21T16:47:59.447Z,87.28
2022-10-21T16:50:46.513Z,87.27
2022-10-21T16:53:17.114Z,87.92
2022-10-21T16:55:43.795Z,88.02
2022-10-21T16:58:10.422Z,88.31
2022-10-21T17:00:37.030Z,88.29
2022-10-21T17:03:04.446Z,88.57
2022-10-21T17:05:31.132Z,88.22
2022-10-21T17:07:59.918Z,88.73
2022-10-21T17:10:26.472Z,88.78
2022-10-21T17:12:58.877Z,88.86
2022-10-21T17:15:26.367Z,88.88
2022-10-21T17:17:52.867Z,89.15
2022-10-21T17:20:19.421Z,89.30
2022-10-21T17:22:46.779Z,89.30
2022-10-21T17:25:13.294Z,89.28
2022-10-21T17:27:40.231Z,89.45
2022-10-21T17:30:07.710Z,89.48
2022-10-21T17:32:35.065Z,89.70
2022-10-21T17:35:01.669Z,90.02
2022-10-21T17:37:28.137Z,89.83
2022-10-21T17:39:54.637Z,90.33
2022-10-21T17:42:21.175Z,90.38
2022-10-21T17:44:47.649Z,90.38
2022-10-21T17:47:15.003Z,90.18
2022-10-21T17:49:42.204Z,90.73
2022-10-21T17:52:09.212Z,90.51
2022-10-21T17:54:36.454Z,91.05
2022-10-21T17:57:03.789Z,90.92
2022-10-21T17:59:32.706Z,91.09
2022-10-21T18:02:00.181Z,90.82
2022-10-21T18:04:26.899Z,91.08
2022-10-21T18:06:53.834Z,91.21
2022-10-21T18:09:20.375Z,91.41
2022-10-21T18:11:47.017Z,91.33
2022-10-21T18:14:14.347Z,91.34
2022-10-21T18:16:41.339Z,91.49
2022-10-21T18:19:07.929Z,91.85
2022-10-21T18:21:34.539Z,91.73
2022-10-21T18:24:01.241Z,91.90
2022-10-21T18:26:30.795Z,91.65
2022-10-21T18:29:00.289Z,92.06
2022-10-21T18:31:29.970Z,92.17
2022-10-21T18:33:58.291Z,92.07
2022-10-21T18:36:25.434Z,92.27
2022-10-21T18:38:52.231Z,91.70
2022-10-21T18:41:21.241Z,91.87
2022-10-21T18:44:04.708Z,91.87
2022-10-21T18:46:31.816Z,91.82
2022-10-21T18:48:59.656Z,91.89
2022-10-21T18:51:26.202Z,92.22
2022-10-21T18:53:53.390Z,92.08
2022-10-21T18:56:21.955Z,92.11
2022-10-21T18:58:49.978Z,92.37
2022-10-21T19:01:17.950Z,92.36
2022-10-21T19:03:45.271Z,92.27
2022-10-21T19:06:33.198Z,92.72
2022-10-21T19:09:02.126Z,92.24
2022-10-21T19:11:29.210Z,92.07
2022-10-21T19:13:56.501Z,92.38
2022-10-21T19:16:23.013Z,92.42
2022-10-21T19:18:50.531Z,92.45
2022-10-21T19:21:18.766Z,92.66
2022-10-21T19:23:45.263Z,92.27
2022-10-21T19:26:12.135Z,92.56
2022-10-21T19:28:39.737Z,92.85
2022-10-21T19:31:07.447Z,92.28
2022-10-21T19:33:34.432Z,92.23
2022-10-21T19:36:05.245Z,92.44
2022-10-21T19:38:43.660Z,92.48
2022-10-21T19:41:13.228Z,92.36
2022-10-21T19:43:39.798Z,92.60
2022-10-21T19:46:07.791Z,92.64
2022-10-21T19:48:38.022Z,92.67
2022-10-21T19:51:05.264Z,92.45
2022-10-21T19:53:34.767Z,92.34
2022-10-21T19:56:04.256Z,92.35
2022-10-21T19:58:31.361Z,92.38
2022-10-21T20:01:06.905Z,92.42
2022-10-21T20:03:33.513Z,92.04
2022-10-21T20:05:59.984Z,92.36
2022-10-21T20:11:16.494Z,92.25
2022-10-21T20:13:43.709Z,92.52
2022-10-21T20:16:20.533Z,92.16
2022-10-21T20:18:47.426Z,92.30
2022-10-21T20:21:14.324Z,92.57
2022-10-21T20:23:41.171Z,92.38
2022-10-21T20:26:08.276Z,92.58
2022-10-21T20:28:35.469Z,92.41
2022-10-21T20:31:13.406Z,92.38
2022-10-21T20:33:42.843Z,92.33
2022-10-21T20:36:13.620Z,92.38
2022-10-21T20:38:40.352Z,92.48
2022-10-21T20:41:10.784Z,92.26
2022-10-21T20:43:39.590Z,92.70
2022-10-21T20:46:08.902Z,92.48
2022-10-21T20:48:36.012Z,92.71
2022-10-21T20:51:15.196Z,92.59
2022-10-21T20:53:50.047Z,92.45
2022-10-21T20:56:16.775Z,92.25
2022-10-21T20:58:43.527Z,92.22
2022-10-21T21:01:32.174Z,92.64
2022-10-21T21:04:01.263Z,92.35
2022-10-21T21:06:28.300Z,92.35
2022-10-21T21:09:22.156Z,92.13
2022-10-21T21:11:41.617Z,92.43
2022-10-21T21:14:08.384Z,92.16
2022-10-21T21:16:35.272Z,92.50
2022-10-21T21:19:04.348Z,92.44
2022-10-21T21:21:40.899Z,92.41
2022-10-21T21:24:07.910Z,92.20
2022-10-21T21:26:38.059Z,92.27
2022-10-21T21:29:06.680Z,92.08
2022-10-21T21:31:35.774Z,92.05
2022-10-21T21:34:03.032Z,92.02
2022-10-21T21:36:29.857Z,92.23
2022-10-21T21:38:56.954Z,91.84
2022-10-21T21:41:25.028Z,92.00
2022-10-21T21:43:53.195Z,91.77
2022-10-21T21:46:24.157Z,91.78
2022-10-21T21:48:54.884Z,92.10
2022-10-21T21:51:24.896Z,92.15
2022-10-21T21:53:51.623Z,91.98
2022-10-21T21:56:19.695Z,91.75
2022-10-21T21:58:51.173Z,92.11
2022-10-21T22:01:26.640Z,91.85
2022-10-21T22:03:54.427Z,91.90
2022-10-21T22:06:23.156Z,91.87
2022-10-21T22:08:50.936Z,91.60
2022-10-21T22:11:20.483Z,91.96
2022-10-21T22:13:47.630Z,91.68
2022-10-21T22:16:16.208Z,92.15
2022-10-21T22:18:43.577Z,91.66
2022-10-21T22:21:12.892Z,91.43
2022-10-21T22:23:40.164Z,91.95
2022-10-21T22:26:07.456Z,91.11
2022-10-21T22:28:34.561Z,92.11
2022-10-21T22:31:07.233Z,91.60
2022-10-21T22:33:34.534Z,91.89
2022-10-21T22:36:01.912Z,91.55
2022-10-21T22:38:31.403Z,91.36
2022-10-21T22:40:59.806Z,91.73
2022-10-21T22:43:27.086Z,91.31
2022-10-21T22:46:01.137Z,91.61
2022-10-21T22:48:36.386Z,91.27
2022-10-21T22:51:02.982Z,91.25
2022-10-21T22:53:29.956Z,91.21
2022-10-21T22:55:56.484Z,91.65
2022-10-21T22:58:23.321Z,91.57
2022-10-21T23:00:51.048Z,91.32
2022-10-21T23:03:19.030Z,91.18
2022-10-21T23:05:47.511Z,91.37
2022-10-21T23:08:14.012Z,91.41
2022-10-21T23:10:40.853Z,91.31
2022-10-21T23:13:07.536Z,91.27
2022-10-21T23:15:35.519Z,91.39
2022-10-21T23:18:02.477Z,91.06
2022-10-21T23:20:28.944Z,91.02
2022-10-21T23:22:55.457Z,91.58
2022-10-21T23:25:23.002Z,91.09
2022-10-21T23:27:50.327Z,91.10
2022-10-21T23:30:17.650Z,91.20
2022-10-21T23:32:44.331Z,91.55
2022-10-21T23:35:10.887Z,91.35
2022-10-21T23:37:37.960Z,91.15
2022-10-21T23:40:05.816Z,91.19
2022-10-21T23:42:32.348Z,91.50
2022-10-21T23:44:58.848Z,91.19
2022-10-21T23:47:25.374Z,91.25
2022-10-21T23:49:51.854Z,91.71
2022-10-21T23:52:18.350Z,91.51
2022-10-21T23:54:44.844Z,91.60
2022-10-21T23:57:11.392Z,91.34
2022-10-21T23:59:37.875Z,91.45
